sensor_id;sensor_type;location;lat;lon;timestamp;temperature;humidity
71514;DHT22;59335;46.652;21.272;2022-10-23T00:02:40;20.00;48.69
71514;DHT22;59335;46.652;21.272;2022-10-23T00:05:43;20.00;48.62
71514;DHT22;59335;46.652;21.272;2022-10-23T00:08:47;20.04;48.60
71514;DHT22;59335;46.652;21.272;2022-10-23T00:11:50;20.04;48.57
71514;DHT22;59335;46.652;21.272;2022-10-23T00:14:53;20.03;48.63
71514;DHT22;59335;46.652;21.272;2022-10-23T00:17:56;20.00;48.58
71514;DHT22;59335;46.652;21.272;2022-10-23T00:20:59;20.03;48.67
71514;DHT22;59335;46.652;21.272;2022-10-23T00:24:02;20.00;48.68
71514;DHT22;59335;46.652;21.272;2022-10-23T00:27:05;20.01;48.59
71514;DHT22;59335;46.652;21.272;2022-10-23T00:30:08;20.00;48.69
71514;DHT22;59335;46.652;21.272;2022-10-23T00:33:10;19.98;48.72
71514;DHT22;59335;46.652;21.272;2022-10-23T00:36:15;20.00;48.64
71514;DHT22;59335;46.652;21.272;2022-10-23T00:39:18;20.01;48.65
71514;DHT22;59335;46.652;21.272;2022-10-23T00:42:21;19.98;48.71
71514;DHT22;59335;46.652;21.272;2022-10-23T00:45:26;19.98;48.69
71514;DHT22;59335;46.652;21.272;2022-10-23T00:48:30;20.00;48.72
71514;DHT22;59335;46.652;21.272;2022-10-23T00:52:02;19.98;48.72
71514;DHT22;59335;46.652;21.272;2022-10-23T00:55:06;19.97;48.73
71514;DHT22;59335;46.652;21.272;2022-10-23T00:58:08;19.98;48.73
71514;DHT22;59335;46.652;21.272;2022-10-23T01:01:18;20.00;48.72
71514;DHT22;59335;46.652;21.272;2022-10-23T01:04:21;19.97;48.70
71514;DHT22;59335;46.652;21.272;2022-10-23T01:07:32;19.97;48.65
71514;DHT22;59335;46.652;21.272;2022-10-23T01:10:53;19.97;48.69
71514;DHT22;59335;46.652;21.272;2022-10-23T01:15:05;20.00;48.62
71514;DHT22;59335;46.652;21.272;2022-10-23T01:17:54;20.00;48.64
71514;DHT22;59335;46.652;21.272;2022-10-23T01:27:27;20.00;48.64
71514;DHT22;59335;46.652;21.272;2022-10-23T01:30:39;19.97;48.69
71514;DHT22;59335;46.652;21.272;2022-10-23T01:33:48;19.94;48.73
71514;DHT22;59335;46.652;21.272;2022-10-23T01:37:00;19.98;48.68
71514;DHT22;59335;46.652;21.272;2022-10-23T01:40:11;19.97;48.57
71514;DHT22;59335;46.652;21.272;2022-10-23T01:43:27;19.97;48.66
71514;DHT22;59335;46.652;21.272;2022-10-23T01:46:32;19.97;48.65
71514;DHT22;59335;46.652;21.272;2022-10-23T01:49:39;19.96;48.74
71514;DHT22;59335;46.652;21.272;2022-10-23T01:52:43;19.94;48.71
71514;DHT22;59335;46.652;21.272;2022-10-23T01:55:48;19.97;48.68
71514;DHT22;59335;46.652;21.272;2022-10-23T01:58:57;19.98;48.68
71514;DHT22;59335;46.652;21.272;2022-10-23T02:02:08;19.98;48.70
71514;DHT22;59335;46.652;21.272;2022-10-23T02:05:19;19.98;48.61
71514;DHT22;59335;46.652;21.272;2022-10-23T02:08:24;19.97;48.69
71514;DHT22;59335;46.652;21.272;2022-10-23T02:11:27;19.96;48.68
71514;DHT22;59335;46.652;21.272;2022-10-23T02:14:53;19.98;48.68
71514;DHT22;59335;46.652;21.272;2022-10-23T02:18:12;19.98;48.69
71514;DHT22;59335;46.652;21.272;2022-10-23T02:21:35;20.01;48.62
71514;DHT22;59335;46.652;21.272;2022-10-23T02:24:53;20.00;48.72
71514;DHT22;59335;46.652;21.272;2022-10-23T02:27:59;20.01;48.71
71514;DHT22;59335;46.652;21.272;2022-10-23T02:31:15;19.97;48.69
71514;DHT22;59335;46.652;21.272;2022-10-23T02:34:18;19.96;48.77
71514;DHT22;59335;46.652;21.272;2022-10-23T02:37:21;19.93;48.79
71514;DHT22;59335;46.652;21.272;2022-10-23T02:40:33;19.94;48.75
71514;DHT22;59335;46.652;21.272;2022-10-23T02:44:02;19.96;48.74
71514;DHT22;59335;46.652;21.272;2022-10-23T02:47:18;19.94;48.75
71514;DHT22;59335;46.652;21.272;2022-10-23T02:50:38;19.93;48.71
71514;DHT22;59335;46.652;21.272;2022-10-23T03:00:31;19.94;48.73
71514;DHT22;59335;46.652;21.272;2022-10-23T03:03:41;19.93;48.73
71514;DHT22;59335;46.652;21.272;2022-10-23T03:06:46;19.94;48.70
71514;DHT22;59335;46.652;21.272;2022-10-23T03:09:51;19.93;48.79
71514;DHT22;59335;46.652;21.272;2022-10-23T03:12:54;19.96;48.74
71514;DHT22;59335;46.652;21.272;2022-10-23T03:15:56;19.94;48.71
71514;DHT22;59335;46.652;21.272;2022-10-23T03:19:01;19.94;48.78
71514;DHT22;59335;46.652;21.272;2022-10-23T03:22:04;19.97;48.78
71514;DHT22;59335;46.652;21.272;2022-10-23T03:25:07;19.93;48.81
71514;DHT22;59335;46.652;21.272;2022-10-23T03:28:10;19.93;48.86
71514;DHT22;59335;46.652;21.272;2022-10-23T03:31:13;19.90;48.84
71514;DHT22;59335;46.652;21.272;2022-10-23T03:34:15;19.90;48.85
71514;DHT22;59335;46.652;21.272;2022-10-23T03:37:18;19.90;48.86
71514;DHT22;59335;46.652;21.272;2022-10-23T03:40:20;19.93;48.76
71514;DHT22;59335;46.652;21.272;2022-10-23T03:43:23;19.91;48.84
71514;DHT22;59335;46.652;21.272;2022-10-23T03:46:25;19.90;48.89
71514;DHT22;59335;46.652;21.272;2022-10-23T03:49:29;19.90;48.90
71514;DHT22;59335;46.652;21.272;2022-10-23T03:52:37;19.90;48.88
71514;DHT22;59335;46.652;21.272;2022-10-23T03:55:40;19.91;48.85
71514;DHT22;59335;46.652;21.272;2022-10-23T03:58:43;19.90;48.91
71514;DHT22;59335;46.652;21.272;2022-10-23T04:01:48;19.93;48.79
71514;DHT22;59335;46.652;21.272;2022-10-23T04:04:50;19.94;48.81
71514;DHT22;59335;46.652;21.272;2022-10-23T04:07:53;19.91;48.81
71514;DHT22;59335;46.652;21.272;2022-10-23T04:10:56;19.96;48.79
71514;DHT22;59335;46.652;21.272;2022-10-23T04:14:10;19.93;48.88
71514;DHT22;59335;46.652;21.272;2022-10-23T04:17:14;19.91;48.88
71514;DHT22;59335;46.652;21.272;2022-10-23T04:20:17;19.91;48.97
71514;DHT22;59335;46.652;21.272;2022-10-23T04:23:19;19.94;48.88
71514;DHT22;59335;46.652;21.272;2022-10-23T04:26:22;19.94;48.84
71514;DHT22;59335;46.652;21.272;2022-10-23T04:29:25;19.91;48.90
71514;DHT22;59335;46.652;21.272;2022-10-23T04:32:31;19.94;48.87
71514;DHT22;59335;46.652;21.272;2022-10-23T04:35:33;19.91;48.88
71514;DHT22;59335;46.652;21.272;2022-10-23T04:38:36;19.94;48.92
71514;DHT22;59335;46.652;21.272;2022-10-23T04:41:41;19.90;49.04
71514;DHT22;59335;46.652;21.272;2022-10-23T04:44:43;19.91;49.05
71514;DHT22;59335;46.652;21.272;2022-10-23T04:47:47;19.90;49.04
71514;DHT22;59335;46.652;21.272;2022-10-23T04:51:01;19.93;48.98
71514;DHT22;59335;46.652;21.272;2022-10-23T04:54:43;19.88;49.07
71514;DHT22;59335;46.652;21.272;2022-10-23T04:58:05;19.88;49.06
71514;DHT22;59335;46.652;21.272;2022-10-23T05:01:08;19.91;49.02
71514;DHT22;59335;46.652;21.272;2022-10-23T05:04:12;19.88;49.06
71514;DHT22;59335;46.652;21.272;2022-10-23T05:07:36;19.88;49.16
71514;DHT22;59335;46.652;21.272;2022-10-23T05:11:02;19.94;49.03
71514;DHT22;59335;46.652;21.272;2022-10-23T05:14:09;19.90;49.11
71514;DHT22;59335;46.652;21.272;2022-10-23T05:17:15;19.90;49.15
71514;DHT22;59335;46.652;21.272;2022-10-23T05:20:21;19.87;49.19
71514;DHT22;59335;46.652;21.272;2022-10-23T05:23:25;19.90;49.08
71514;DHT22;59335;46.652;21.272;2022-10-23T05:26:31;19.93;49.04
71514;DHT22;59335;46.652;21.272;2022-10-23T05:29:39;19.88;49.09
71514;DHT22;59335;46.652;21.272;2022-10-23T05:32:43;19.91;49.07
71514;DHT22;59335;46.652;21.272;2022-10-23T05:35:47;19.93;49.09
71514;DHT22;59335;46.652;21.272;2022-10-23T05:38:51;19.90;49.12
71514;DHT22;59335;46.652;21.272;2022-10-23T05:41:55;19.88;49.14
71514;DHT22;59335;46.652;21.272;2022-10-23T05:44:59;19.90;49.19
71514;DHT22;59335;46.652;21.272;2022-10-23T05:48:35;19.86;49.27
71514;DHT22;59335;46.652;21.272;2022-10-23T05:51:56;19.88;49.23
71514;DHT22;59335;46.652;21.272;2022-10-23T05:55:17;19.91;49.13
71514;DHT22;59335;46.652;21.272;2022-10-23T05:58:23;19.88;49.18
71514;DHT22;59335;46.652;21.272;2022-10-23T06:01:48;19.91;49.15
71514;DHT22;59335;46.652;21.272;2022-10-23T06:05:14;19.93;49.13
71514;DHT22;59335;46.652;21.272;2022-10-23T06:08:43;19.93;49.16
71514;DHT22;59335;46.652;21.272;2022-10-23T06:11:46;19.90;49.23
71514;DHT22;59335;46.652;21.272;2022-10-23T06:14:54;19.93;49.22
71514;DHT22;59335;46.652;21.272;2022-10-23T06:18:04;19.88;49.27
71514;DHT22;59335;46.652;21.272;2022-10-23T06:21:09;19.86;49.31
71514;DHT22;59335;46.652;21.272;2022-10-23T06:24:12;19.86;49.26
71514;DHT22;59335;46.652;21.272;2022-10-23T06:27:23;19.90;49.28
71514;DHT22;59335;46.652;21.272;2022-10-23T06:30:27;19.88;49.33
71514;DHT22;59335;46.652;21.272;2022-10-23T06:33:31;19.88;49.37
71514;DHT22;59335;46.652;21.272;2022-10-23T06:36:37;19.86;49.38
71514;DHT22;59335;46.652;21.272;2022-10-23T06:39:49;19.88;49.36
71514;DHT22;59335;46.652;21.272;2022-10-23T06:43:07;19.87;49.41
71514;DHT22;59335;46.652;21.272;2022-10-23T06:46:30;19.88;49.37
71514;DHT22;59335;46.652;21.272;2022-10-23T06:49:49;19.87;49.35
71514;DHT22;59335;46.652;21.272;2022-10-23T06:52:52;19.90;49.36
71514;DHT22;59335;46.652;21.272;2022-10-23T06:56:00;19.88;49.37
71514;DHT22;59335;46.652;21.272;2022-10-23T06:59:03;19.87;49.36
71514;DHT22;59335;46.652;21.272;2022-10-23T07:02:09;19.88;49.32
71514;DHT22;59335;46.652;21.272;2022-10-23T07:05:12;19.90;49.40
71514;DHT22;59335;46.652;21.272;2022-10-23T07:08:16;19.86;49.45
71514;DHT22;59335;46.652;21.272;2022-10-23T07:11:21;19.86;49.44
71514;DHT22;59335;46.652;21.272;2022-10-23T07:14:25;19.87;49.45
71514;DHT22;59335;46.652;21.272;2022-10-23T07:17:28;19.88;49.50
71514;DHT22;59335;46.652;21.272;2022-10-23T07:20:33;19.90;49.43
71514;DHT22;59335;46.652;21.272;2022-10-23T07:23:36;19.88;49.49
71514;DHT22;59335;46.652;21.272;2022-10-23T07:26:40;19.87;49.52
71514;DHT22;59335;46.652;21.272;2022-10-23T07:29:43;19.87;49.56
71514;DHT22;59335;46.652;21.272;2022-10-23T07:32:46;19.88;49.44
71514;DHT22;59335;46.652;21.272;2022-10-23T07:36:09;19.93;49.35
71514;DHT22;59335;46.652;21.272;2022-10-23T07:39:11;19.90;49.43
71514;DHT22;59335;46.652;21.272;2022-10-23T07:42:22;19.87;49.44
71514;DHT22;59335;46.652;21.272;2022-10-23T07:45:24;19.88;49.41
71514;DHT22;59335;46.652;21.272;2022-10-23T07:48:28;19.90;49.38
71514;DHT22;59335;46.652;21.272;2022-10-23T07:51:33;19.90;49.46
71514;DHT22;59335;46.652;21.272;2022-10-23T07:54:35;19.91;49.52
71514;DHT22;59335;46.652;21.272;2022-10-23T07:57:53;19.93;49.46
71514;DHT22;59335;46.652;21.272;2022-10-23T08:01:17;19.90;49.52
71514;DHT22;59335;46.652;21.272;2022-10-23T08:04:21;19.90;49.51
71514;DHT22;59335;46.652;21.272;2022-10-23T08:07:32;19.87;49.56
71514;DHT22;59335;46.652;21.272;2022-10-23T08:10:35;19.91;49.46
71514;DHT22;59335;46.652;21.272;2022-10-23T08:13:40;19.88;49.59
71514;DHT22;59335;46.652;21.272;2022-10-23T08:16:43;19.87;49.61
71514;DHT22;59335;46.652;21.272;2022-10-23T08:19:51;19.88;49.60
71514;DHT22;59335;46.652;21.272;2022-10-23T08:22:55;19.90;49.64
71514;DHT22;59335;46.652;21.272;2022-10-23T08:26:01;19.90;49.59
71514;DHT22;59335;46.652;21.272;2022-10-23T08:29:05;19.87;49.50
71514;DHT22;59335;46.652;21.272;2022-10-23T08:32:09;19.90;49.58
71514;DHT22;59335;46.652;21.272;2022-10-23T08:35:22;19.93;49.49
71514;DHT22;59335;46.652;21.272;2022-10-23T08:38:25;19.90;49.53
71514;DHT22;59335;46.652;21.272;2022-10-23T08:41:34;19.91;49.54
71514;DHT22;59335;46.652;21.272;2022-10-23T08:48:19;19.91;49.58
71514;DHT22;59335;46.652;21.272;2022-10-23T08:52:06;19.91;49.58
71514;DHT22;59335;46.652;21.272;2022-10-23T08:59:27;19.93;49.53
71514;DHT22;59335;46.652;21.272;2022-10-23T09:02:41;19.94;49.54
71514;DHT22;59335;46.652;21.272;2022-10-23T09:05:50;19.94;49.49
71514;DHT22;59335;46.652;21.272;2022-10-23T09:12:13;19.93;49.69
71514;DHT22;59335;46.652;21.272;2022-10-23T09:15:34;19.91;49.60
71514;DHT22;59335;46.652;21.272;2022-10-23T09:18:40;19.93;49.54
71514;DHT22;59335;46.652;21.272;2022-10-23T09:21:45;19.93;49.58
71514;DHT22;59335;46.652;21.272;2022-10-23T09:24:51;19.91;49.64
71514;DHT22;59335;46.652;21.272;2022-10-23T09:27:59;19.91;49.65
71514;DHT22;59335;46.652;21.272;2022-10-23T09:31:07;19.96;49.63
71514;DHT22;59335;46.652;21.272;2022-10-23T09:34:17;19.93;49.67
71514;DHT22;59335;46.652;21.272;2022-10-23T09:37:26;19.93;49.72
71514;DHT22;59335;46.652;21.272;2022-10-23T09:40:42;19.96;49.63
71514;DHT22;59335;46.652;21.272;2022-10-23T09:43:44;19.90;49.77
71514;DHT22;59335;46.652;21.272;2022-10-23T09:46:54;19.91;49.72
71514;DHT22;59335;46.652;21.272;2022-10-23T09:49:59;19.94;49.68
71514;DHT22;59335;46.652;21.272;2022-10-23T09:53:02;19.94;49.73
71514;DHT22;59335;46.652;21.272;2022-10-23T09:56:23;19.94;49.77
71514;DHT22;59335;46.652;21.272;2022-10-23T09:59:27;19.93;49.77
71514;DHT22;59335;46.652;21.272;2022-10-23T10:02:33;19.97;49.73
71514;DHT22;59335;46.652;21.272;2022-10-23T10:05:38;19.94;49.81
71514;DHT22;59335;46.652;21.272;2022-10-23T10:08:49;19.94;49.78
71514;DHT22;59335;46.652;21.272;2022-10-23T10:11:54;19.94;49.70
71514;DHT22;59335;46.652;21.272;2022-10-23T10:18:27;19.98;49.72
71514;DHT22;59335;46.652;21.272;2022-10-23T10:21:49;19.94;49.66
71514;DHT22;59335;46.652;21.272;2022-10-23T10:24:55;19.93;49.73
71514;DHT22;59335;46.652;21.272;2022-10-23T10:52:02;19.97;49.92
71514;DHT22;59335;46.652;21.272;2022-10-23T11:05:34;19.93;50.03
71514;DHT22;59335;46.652;21.272;2022-10-23T11:08:40;19.96;49.98
71514;DHT22;59335;46.652;21.272;2022-10-23T11:11:59;20.01;49.83
71514;DHT22;59335;46.652;21.272;2022-10-23T11:15:02;19.98;49.81
71514;DHT22;59335;46.652;21.272;2022-10-23T11:18:12;19.97;49.87
71514;DHT22;59335;46.652;21.272;2022-10-23T11:31:17;19.96;49.80
71514;DHT22;59335;46.652;21.272;2022-10-23T11:38:17;20.00;49.86
71514;DHT22;59335;46.652;21.272;2022-10-23T11:41:21;19.97;49.94
71514;DHT22;59335;46.652;21.272;2022-10-23T11:47:56;19.96;49.79
71514;DHT22;59335;46.652;21.272;2022-10-23T11:50:59;19.98;49.79
71514;DHT22;59335;46.652;21.272;2022-10-23T11:57:18;19.97;49.82
71514;DHT22;59335;46.652;21.272;2022-10-23T12:00:22;19.98;49.84
71514;DHT22;59335;46.652;21.272;2022-10-23T12:03:39;19.98;49.88
71514;DHT22;59335;46.652;21.272;2022-10-23T12:06:47;19.98;49.81
71514;DHT22;59335;46.652;21.272;2022-10-23T12:09:54;19.98;49.90
71514;DHT22;59335;46.652;21.272;2022-10-23T12:13:00;19.97;50.01
71514;DHT22;59335;46.652;21.272;2022-10-23T12:16:05;19.94;50.05
71514;DHT22;59335;46.652;21.272;2022-10-23T12:19:18;19.97;50.02
71514;DHT22;59335;46.652;21.272;2022-10-23T12:22:26;19.96;49.93
71514;DHT22;59335;46.652;21.272;2022-10-23T12:25:53;19.97;49.86
71514;DHT22;59335;46.652;21.272;2022-10-23T12:29:17;20.00;49.78
71514;DHT22;59335;46.652;21.272;2022-10-23T12:32:40;19.96;49.90
71514;DHT22;59335;46.652;21.272;2022-10-23T12:39:28;19.98;49.93
71514;DHT22;59335;46.652;21.272;2022-10-23T12:42:31;19.97;49.87
71514;DHT22;59335;46.652;21.272;2022-10-23T12:45:38;20.00;49.89
71514;DHT22;59335;46.652;21.272;2022-10-23T12:48:49;19.98;49.94
71514;DHT22;59335;46.652;21.272;2022-10-23T12:52:04;19.96;49.86
71514;DHT22;59335;46.652;21.272;2022-10-23T12:55:12;19.96;49.93
71514;DHT22;59335;46.652;21.272;2022-10-23T12:58:34;19.96;49.99
71514;DHT22;59335;46.652;21.272;2022-10-23T13:01:39;19.97;49.89
71514;DHT22;59335;46.652;21.272;2022-10-23T13:04:46;19.96;49.87
71514;DHT22;59335;46.652;21.272;2022-10-23T13:07:51;19.97;49.83
71514;DHT22;59335;46.652;21.272;2022-10-23T13:11:04;19.96;49.89
71514;DHT22;59335;46.652;21.272;2022-10-23T13:14:13;19.98;49.79
71514;DHT22;59335;46.652;21.272;2022-10-23T13:17:16;19.97;49.98
71514;DHT22;59335;46.652;21.272;2022-10-23T13:23:29;19.98;49.94
71514;DHT22;59335;46.652;21.272;2022-10-23T13:26:37;19.97;49.97
71514;DHT22;59335;46.652;21.272;2022-10-23T13:29:49;19.96;49.88
71514;DHT22;59335;46.652;21.272;2022-10-23T13:32:52;19.94;49.88
71514;DHT22;59335;46.652;21.272;2022-10-23T13:35:59;19.98;49.93
71514;DHT22;59335;46.652;21.272;2022-10-23T13:42:13;19.97;49.85
71514;DHT22;59335;46.652;21.272;2022-10-23T13:45:25;19.96;49.83
71514;DHT22;59335;46.652;21.272;2022-10-23T13:48:29;19.97;49.84
71514;DHT22;59335;46.652;21.272;2022-10-23T13:51:36;19.96;49.76
71514;DHT22;59335;46.652;21.272;2022-10-23T13:54:45;19.96;49.72
71514;DHT22;59335;46.652;21.272;2022-10-23T13:57:48;19.96;49.84
71514;DHT22;59335;46.652;21.272;2022-10-23T14:00:52;19.96;49.92
71514;DHT22;59335;46.652;21.272;2022-10-23T14:03:57;19.96;50.02
71514;DHT22;59335;46.652;21.272;2022-10-23T14:07:00;19.96;49.98
71514;DHT22;59335;46.652;21.272;2022-10-23T14:10:03;19.98;49.90
71514;DHT22;59335;46.652;21.272;2022-10-23T14:13:07;19.96;49.82
71514;DHT22;59335;46.652;21.272;2022-10-23T14:16:12;19.94;49.94
71514;DHT22;59335;46.652;21.272;2022-10-23T14:19:16;19.97;49.97
71514;DHT22;59335;46.652;21.272;2022-10-23T14:22:19;19.93;49.94
71514;DHT22;59335;46.652;21.272;2022-10-23T14:25:24;19.94;49.94
71514;DHT22;59335;46.652;21.272;2022-10-23T14:28:27;19.93;49.98
71514;DHT22;59335;46.652;21.272;2022-10-23T14:31:30;19.91;50.02
71514;DHT22;59335;46.652;21.272;2022-10-23T14:34:34;19.94;49.95
71514;DHT22;59335;46.652;21.272;2022-10-23T14:37:38;19.94;49.95
71514;DHT22;59335;46.652;21.272;2022-10-23T14:40:53;19.97;49.95
71514;DHT22;59335;46.652;21.272;2022-10-23T14:43:57;19.96;49.92
71514;DHT22;59335;46.652;21.272;2022-10-23T14:47:00;19.96;49.84
71514;DHT22;59335;46.652;21.272;2022-10-23T14:50:05;19.94;49.91
71514;DHT22;59335;46.652;21.272;2022-10-23T14:53:09;19.93;49.94
71514;DHT22;59335;46.652;21.272;2022-10-23T14:56:15;19.93;50.01
71514;DHT22;59335;46.652;21.272;2022-10-23T14:59:19;19.94;49.99
71514;DHT22;59335;46.652;21.272;2022-10-23T15:02:22;19.91;50.01
71514;DHT22;59335;46.652;21.272;2022-10-23T15:05:25;19.93;49.93
71514;DHT22;59335;46.652;21.272;2022-10-23T15:08:29;19.93;50.02
71514;DHT22;59335;46.652;21.272;2022-10-23T15:11:33;19.93;49.99
71514;DHT22;59335;46.652;21.272;2022-10-23T15:14:37;19.93;50.04
71514;DHT22;59335;46.652;21.272;2022-10-23T15:17:40;19.93;49.94
71514;DHT22;59335;46.652;21.272;2022-10-23T15:20:51;19.93;49.95
71514;DHT22;59335;46.652;21.272;2022-10-23T15:23:54;19.93;49.98
71514;DHT22;59335;46.652;21.272;2022-10-23T15:26:59;19.88;50.05
71514;DHT22;59335;46.652;21.272;2022-10-23T15:30:03;19.88;50.05
71514;DHT22;59335;46.652;21.272;2022-10-23T15:33:07;19.93;49.99
71514;DHT22;59335;46.652;21.272;2022-10-23T15:36:11;19.91;50.10
71514;DHT22;59335;46.652;21.272;2022-10-23T15:39:17;19.91;50.03
71514;DHT22;59335;46.652;21.272;2022-10-23T15:42:21;19.90;50.07
71514;DHT22;59335;46.652;21.272;2022-10-23T15:45:26;19.86;50.09
71514;DHT22;59335;46.652;21.272;2022-10-23T15:48:33;19.88;50.00
71514;DHT22;59335;46.652;21.272;2022-10-23T15:51:41;19.86;50.12
71514;DHT22;59335;46.652;21.272;2022-10-23T15:54:44;19.87;50.10
71514;DHT22;59335;46.652;21.272;2022-10-23T15:57:54;19.88;50.12
71514;DHT22;59335;46.652;21.272;2022-10-23T16:01:02;19.87;50.09
71514;DHT22;59335;46.652;21.272;2022-10-23T16:04:11;19.87;50.18
71514;DHT22;59335;46.652;21.272;2022-10-23T16:07:14;19.84;50.14
71514;DHT22;59335;46.652;21.272;2022-10-23T16:10:17;19.86;50.13
71514;DHT22;59335;46.652;21.272;2022-10-23T16:13:22;19.86;50.16
71514;DHT22;59335;46.652;21.272;2022-10-23T16:16:26;19.86;50.08
71514;DHT22;59335;46.652;21.272;2022-10-23T16:19:30;19.84;50.16
71514;DHT22;59335;46.652;21.272;2022-10-23T16:22:33;19.84;50.16
71514;DHT22;59335;46.652;21.272;2022-10-23T16:25:37;19.84;50.18
71514;DHT22;59335;46.652;21.272;2022-10-23T16:28:42;19.86;50.12
71514;DHT22;59335;46.652;21.272;2022-10-23T16:31:51;19.83;50.22
71514;DHT22;59335;46.652;21.272;2022-10-23T16:34:55;19.81;50.25
71514;DHT22;59335;46.652;21.272;2022-10-23T16:37:59;19.80;50.24
71514;DHT22;59335;46.652;21.272;2022-10-23T16:41:04;19.81;50.19
71514;DHT22;59335;46.652;21.272;2022-10-23T16:44:09;19.80;50.30
71514;DHT22;59335;46.652;21.272;2022-10-23T16:47:24;19.84;50.21
71514;DHT22;59335;46.652;21.272;2022-10-23T16:50:28;19.80;50.21
71514;DHT22;59335;46.652;21.272;2022-10-23T16:53:32;19.83;50.10
71514;DHT22;59335;46.652;21.272;2022-10-23T16:56:37;19.84;50.06
71514;DHT22;59335;46.652;21.272;2022-10-23T16:59:41;19.80;50.14
71514;DHT22;59335;46.652;21.272;2022-10-23T17:02:49;19.83;50.18
71514;DHT22;59335;46.652;21.272;2022-10-23T17:05:53;19.81;50.19
71514;DHT22;59335;46.652;21.272;2022-10-23T17:09:04;19.80;50.19
71514;DHT22;59335;46.652;21.272;2022-10-23T17:12:09;19.84;50.10
71514;DHT22;59335;46.652;21.272;2022-10-23T17:15:13;19.83;50.12
71514;DHT22;59335;46.652;21.272;2022-10-23T17:18:17;19.86;50.02
71514;DHT22;59335;46.652;21.272;2022-10-23T17:21:24;19.81;50.17
71514;DHT22;59335;46.652;21.272;2022-10-23T17:24:27;19.81;50.19
71514;DHT22;59335;46.652;21.272;2022-10-23T17:27:33;19.79;50.19
71514;DHT22;59335;46.652;21.272;2022-10-23T17:30:37;19.83;50.09
71514;DHT22;59335;46.652;21.272;2022-10-23T17:33:42;19.80;50.12
71514;DHT22;59335;46.652;21.272;2022-10-23T17:36:49;19.81;50.13
71514;DHT22;59335;46.652;21.272;2022-10-23T17:39:54;19.83;50.08
71514;DHT22;59335;46.652;21.272;2022-10-23T17:43:03;19.79;50.20
71514;DHT22;59335;46.652;21.272;2022-10-23T17:46:09;19.79;50.16
71514;DHT22;59335;46.652;21.272;2022-10-23T17:49:13;19.80;50.22
71514;DHT22;59335;46.652;21.272;2022-10-23T17:52:19;19.79;50.12
71514;DHT22;59335;46.652;21.272;2022-10-23T17:55:24;19.81;50.10
71514;DHT22;59335;46.652;21.272;2022-10-23T17:58:31;19.79;50.13
71514;DHT22;59335;46.652;21.272;2022-10-23T18:01:35;19.83;50.08
71514;DHT22;59335;46.652;21.272;2022-10-23T18:04:41;19.80;50.13
71514;DHT22;59335;46.652;21.272;2022-10-23T18:07:45;19.80;50.09
71514;DHT22;59335;46.652;21.272;2022-10-23T18:10:49;19.80;50.14
71514;DHT22;59335;46.652;21.272;2022-10-23T18:13:52;19.77;50.24
71514;DHT22;59335;46.652;21.272;2022-10-23T18:16:57;19.77;50.15
71514;DHT22;59335;46.652;21.272;2022-10-23T18:20:01;19.79;50.20
71514;DHT22;59335;46.652;21.272;2022-10-23T18:23:06;19.84;50.06
71514;DHT22;59335;46.652;21.272;2022-10-23T18:26:18;19.80;50.15
71514;DHT22;59335;46.652;21.272;2022-10-23T18:29:23;19.80;50.20
71514;DHT22;59335;46.652;21.272;2022-10-23T18:32:26;19.79;50.13
71514;DHT22;59335;46.652;21.272;2022-10-23T18:35:34;19.79;50.21
71514;DHT22;59335;46.652;21.272;2022-10-23T18:38:39;19.79;50.20
71514;DHT22;59335;46.652;21.272;2022-10-23T18:41:44;19.79;50.18
71514;DHT22;59335;46.652;21.272;2022-10-23T18:44:48;19.79;50.25
71514;DHT22;59335;46.652;21.272;2022-10-23T18:47:52;19.80;50.19
71514;DHT22;59335;46.652;21.272;2022-10-23T18:50:56;19.80;50.20
71514;DHT22;59335;46.652;21.272;2022-10-23T18:54:05;19.77;50.24
71514;DHT22;59335;46.652;21.272;2022-10-23T18:57:09;19.76;50.27
71514;DHT22;59335;46.652;21.272;2022-10-23T19:00:14;19.74;50.26
71514;DHT22;59335;46.652;21.272;2022-10-23T19:03:20;19.77;50.27
71514;DHT22;59335;46.652;21.272;2022-10-23T19:06:27;19.79;50.18
71514;DHT22;59335;46.652;21.272;2022-10-23T19:09:32;19.77;50.30
71514;DHT22;59335;46.652;21.272;2022-10-23T19:12:36;19.74;50.26
71514;DHT22;59335;46.652;21.272;2022-10-23T19:15:40;19.74;50.22
71514;DHT22;59335;46.652;21.272;2022-10-23T19:18:48;19.74;50.20
71514;DHT22;59335;46.652;21.272;2022-10-23T19:21:58;19.77;50.22
71514;DHT22;59335;46.652;21.272;2022-10-23T19:25:07;19.74;50.24
71514;DHT22;59335;46.652;21.272;2022-10-23T19:28:13;19.74;50.23
71514;DHT22;59335;46.652;21.272;2022-10-23T19:31:18;19.76;50.25
71514;DHT22;59335;46.652;21.272;2022-10-23T19:34:23;19.74;50.23
71514;DHT22;59335;46.652;21.272;2022-10-23T19:37:27;19.76;50.23
71514;DHT22;59335;46.652;21.272;2022-10-23T19:40:32;19.76;50.24
71514;DHT22;59335;46.652;21.272;2022-10-23T19:43:35;19.76;50.20
71514;DHT22;59335;46.652;21.272;2022-10-23T19:46:40;19.76;50.31
71514;DHT22;59335;46.652;21.272;2022-10-23T19:49:44;19.73;50.34
71514;DHT22;59335;46.652;21.272;2022-10-23T19:52:48;19.74;50.33
71514;DHT22;59335;46.652;21.272;2022-10-23T19:56:06;19.71;50.38
71514;DHT22;59335;46.652;21.272;2022-10-23T19:59:11;19.74;50.37
71514;DHT22;59335;46.652;21.272;2022-10-23T20:02:19;19.73;50.41
71514;DHT22;59335;46.652;21.272;2022-10-23T20:05:25;19.73;50.47
71514;DHT22;59335;46.652;21.272;2022-10-23T20:08:29;19.73;50.44
71514;DHT22;59335;46.652;21.272;2022-10-23T20:11:38;19.74;50.40
71514;DHT22;59335;46.652;21.272;2022-10-23T20:14:41;19.74;50.46
71514;DHT22;59335;46.652;21.272;2022-10-23T20:17:46;19.74;50.42
71514;DHT22;59335;46.652;21.272;2022-10-23T20:20:51;19.67;50.48
71514;DHT22;59335;46.652;21.272;2022-10-23T20:23:59;19.71;50.47
71514;DHT22;59335;46.652;21.272;2022-10-23T20:27:04;19.73;50.38
71514;DHT22;59335;46.652;21.272;2022-10-23T20:30:09;19.74;50.41
71514;DHT22;59335;46.652;21.272;2022-10-23T20:33:12;19.69;50.47
71514;DHT22;59335;46.652;21.272;2022-10-23T20:36:26;19.70;50.54
71514;DHT22;59335;46.652;21.272;2022-10-23T20:39:30;19.71;50.53
71514;DHT22;59335;46.652;21.272;2022-10-23T20:42:36;19.71;50.55
71514;DHT22;59335;46.652;21.272;2022-10-23T20:45:39;19.73;50.55
71514;DHT22;59335;46.652;21.272;2022-10-23T20:48:44;19.71;50.54
71514;DHT22;59335;46.652;21.272;2022-10-23T20:51:52;19.71;50.55
71514;DHT22;59335;46.652;21.272;2022-10-23T20:54:57;19.71;50.56
71514;DHT22;59335;46.652;21.272;2022-10-23T20:57:59;19.66;50.59